sensor_id;sensor_type;location;lat;lon;timestamp;P1;durP1;ratioP1;P2;durP2;ratioP2
27305;SDS011;14792;50.886;6.468;2023-10-19T00:00:13;18.90;;;15.05;;
27305;SDS011;14792;50.886;6.468;2023-10-19T00:03:20;23.05;;;16.07;;
27305;SDS011;14792;50.886;6.468;2023-10-19T00:06:22;20.27;;;15.95;;
27305;SDS011;14792;50.886;6.468;2023-10-19T00:09:23;19.70;;;14.55;;
27305;SDS011;14792;50.886;6.468;2023-10-19T00:12:25;19.42;;;15.00;;
27305;SDS011;14792;50.886;6.468;2023-10-19T00:15:26;22.22;;;14.50;;
27305;SDS011;14792;50.886;6.468;2023-10-19T00:18:28;20.32;;;15.03;;
27305;SDS011;14792;50.886;6.468;2023-10-19T00:21:29;18.15;;;15.05;;
27305;SDS011;14792;50.886;6.468;2023-10-19T00:24:31;22.48;;;15.32;;
27305;SDS011;14792;50.886;6.468;2023-10-19T00:27:33;22.87;;;15.43;;
27305;SDS011;14792;50.886;6.468;2023-10-19T00:30:34;19.67;;;14.05;;
27305;SDS011;14792;50.886;6.468;2023-10-19T00:33:39;23.50;;;16.42;;
27305;SDS011;14792;50.886;6.468;2023-10-19T00:36:40;24.92;;;16.20;;
27305;SDS011;14792;50.886;6.468;2023-10-19T00:39:42;24.00;;;15.10;;
27305;SDS011;14792;50.886;6.468;2023-10-19T00:42:46;21.80;;;15.38;;
27305;SDS011;14792;50.886;6.468;2023-10-19T00:45:48;24.65;;;15.28;;
27305;SDS011;14792;50.886;6.468;2023-10-19T00:48:56;18.35;;;14.50;;
27305;SDS011;14792;50.886;6.468;2023-10-19T00:52:00;23.25;;;15.03;;
27305;SDS011;14792;50.886;6.468;2023-10-19T00:55:04;21.87;;;15.13;;
27305;SDS011;14792;50.886;6.468;2023-10-19T00:58:05;21.62;;;14.90;;
27305;SDS011;14792;50.886;6.468;2023-10-19T01:01:07;18.17;;;13.43;;
27305;SDS011;14792;50.886;6.468;2023-10-19T01:04:08;18.52;;;14.07;;
27305;SDS011;14792;50.886;6.468;2023-10-19T01:07:10;21.30;;;15.13;;
27305;SDS011;14792;50.886;6.468;2023-10-19T01:10:14;21.45;;;15.10;;
27305;SDS011;14792;50.886;6.468;2023-10-19T01:13:16;25.77;;;14.50;;
27305;SDS011;14792;50.886;6.468;2023-10-19T01:16:17;21.05;;;15.25;;
27305;SDS011;14792;50.886;6.468;2023-10-19T01:19:22;21.02;;;14.03;;
27305;SDS011;14792;50.886;6.468;2023-10-19T01:22:23;18.45;;;14.23;;
27305;SDS011;14792;50.886;6.468;2023-10-19T01:25:25;20.70;;;13.93;;
27305;SDS011;14792;50.886;6.468;2023-10-19T01:28:27;21.12;;;14.53;;
27305;SDS011;14792;50.886;6.468;2023-10-19T01:31:49;25.92;;;15.63;;
27305;SDS011;14792;50.886;6.468;2023-10-19T01:34:59;26.87;;;15.95;;
27305;SDS011;14792;50.886;6.468;2023-10-19T01:38:01;23.18;;;16.10;;
27305;SDS011;14792;50.886;6.468;2023-10-19T01:41:05;20.10;;;15.80;;
27305;SDS011;14792;50.886;6.468;2023-10-19T01:44:04;23.52;;;15.83;;
27305;SDS011;14792;50.886;6.468;2023-10-19T01:47:05;20.48;;;14.85;;
27305;SDS011;14792;50.886;6.468;2023-10-19T01:50:07;26.15;;;16.48;;
27305;SDS011;14792;50.886;6.468;2023-10-19T01:53:09;19.77;;;15.18;;
27305;SDS011;14792;50.886;6.468;2023-10-19T01:56:16;22.30;;;15.60;;
27305;SDS011;14792;50.886;6.468;2023-10-19T01:59:17;27.50;;;16.90;;
27305;SDS011;14792;50.886;6.468;2023-10-19T02:02:19;22.15;;;15.13;;
27305;SDS011;14792;50.886;6.468;2023-10-19T02:05:21;21.40;;;15.30;;
27305;SDS011;14792;50.886;6.468;2023-10-19T02:08:22;20.80;;;15.00;;
27305;SDS011;14792;50.886;6.468;2023-10-19T02:11:24;20.72;;;14.38;;
27305;SDS011;14792;50.886;6.468;2023-10-19T02:14:26;25.10;;;15.25;;
27305;SDS011;14792;50.886;6.468;2023-10-19T02:17:27;21.05;;;14.87;;
27305;SDS011;14792;50.886;6.468;2023-10-19T02:20:29;18.35;;;13.50;;
27305;SDS011;14792;50.886;6.468;2023-10-19T02:23:30;22.65;;;13.70;;
27305;SDS011;14792;50.886;6.468;2023-10-19T02:26:32;20.82;;;15.28;;
27305;SDS011;14792;50.886;6.468;2023-10-19T02:29:34;22.85;;;16.35;;
27305;SDS011;14792;50.886;6.468;2023-10-19T02:32:35;26.87;;;16.48;;
27305;SDS011;14792;50.886;6.468;2023-10-19T02:35:37;25.97;;;16.40;;
27305;SDS011;14792;50.886;6.468;2023-10-19T02:38:39;22.58;;;15.68;;
27305;SDS011;14792;50.886;6.468;2023-10-19T02:41:41;27.67;;;15.35;;
27305;SDS011;14792;50.886;6.468;2023-10-19T02:44:42;22.67;;;14.80;;
27305;SDS011;14792;50.886;6.468;2023-10-19T02:47:44;27.27;;;16.52;;
27305;SDS011;14792;50.886;6.468;2023-10-19T02:50:45;24.30;;;15.88;;
27305;SDS011;14792;50.886;6.468;2023-10-19T02:53:46;24.95;;;15.63;;
27305;SDS011;14792;50.886;6.468;2023-10-19T02:56:48;25.23;;;16.55;;
27305;SDS011;14792;50.886;6.468;2023-10-19T02:59:52;24.20;;;15.53;;
27305;SDS011;14792;50.886;6.468;2023-10-19T03:02:54;21.70;;;15.90;;
27305;SDS011;14792;50.886;6.468;2023-10-19T03:05:55;27.20;;;15.53;;
27305;SDS011;14792;50.886;6.468;2023-10-19T03:08:57;24.87;;;15.30;;
27305;SDS011;14792;50.886;6.468;2023-10-19T03:11:59;20.62;;;14.30;;
27305;SDS011;14792;50.886;6.468;2023-10-19T03:15:00;21.20;;;13.95;;
27305;SDS011;14792;50.886;6.468;2023-10-19T03:18:02;20.75;;;14.35;;
27305;SDS011;14792;50.886;6.468;2023-10-19T03:21:03;23.83;;;15.05;;
27305;SDS011;14792;50.886;6.468;2023-10-19T03:24:05;20.05;;;15.10;;
27305;SDS011;14792;50.886;6.468;2023-10-19T03:27:10;23.25;;;14.05;;
27305;SDS011;14792;50.886;6.468;2023-10-19T03:30:11;20.37;;;13.43;;
27305;SDS011;14792;50.886;6.468;2023-10-19T03:33:12;26.50;;;14.10;;
27305;SDS011;14792;50.886;6.468;2023-10-19T03:36:14;23.45;;;13.08;;
27305;SDS011;14792;50.886;6.468;2023-10-19T03:39:16;22.15;;;15.25;;
27305;SDS011;14792;50.886;6.468;2023-10-19T03:42:17;22.73;;;15.58;;
27305;SDS011;14792;50.886;6.468;2023-10-19T03:45:19;22.42;;;14.13;;
27305;SDS011;14792;50.886;6.468;2023-10-19T03:48:21;21.05;;;14.18;;
27305;SDS011;14792;50.886;6.468;2023-10-19T03:51:22;21.93;;;11.75;;
27305;SDS011;14792;50.886;6.468;2023-10-19T03:54:26;20.65;;;11.55;;
27305;SDS011;14792;50.886;6.468;2023-10-19T03:57:28;20.37;;;14.60;;
27305;SDS011;14792;50.886;6.468;2023-10-19T04:00:32;26.02;;;16.93;;
27305;SDS011;14792;50.886;6.468;2023-10-19T04:03:34;29.98;;;17.32;;
27305;SDS011;14792;50.886;6.468;2023-10-19T04:06:35;27.30;;;18.15;;
27305;SDS011;14792;50.886;6.468;2023-10-19T04:09:37;28.87;;;18.32;;
27305;SDS011;14792;50.886;6.468;2023-10-19T04:12:39;27.62;;;18.15;;
27305;SDS011;14792;50.886;6.468;2023-10-19T04:15:40;28.85;;;17.23;;
27305;SDS011;14792;50.886;6.468;2023-10-19T04:18:42;29.80;;;17.95;;
27305;SDS011;14792;50.886;6.468;2023-10-19T04:21:43;35.08;;;17.73;;
27305;SDS011;14792;50.886;6.468;2023-10-19T04:24:45;28.77;;;17.67;;
27305;SDS011;14792;50.886;6.468;2023-10-19T04:27:47;26.77;;;17.50;;
27305;SDS011;14792;50.886;6.468;2023-10-19T04:30:48;26.80;;;17.50;;
27305;SDS011;14792;50.886;6.468;2023-10-19T04:33:50;29.52;;;17.00;;
27305;SDS011;14792;50.886;6.468;2023-10-19T04:36:51;26.70;;;17.27;;
27305;SDS011;14792;50.886;6.468;2023-10-19T04:39:53;29.77;;;16.97;;
27305;SDS011;14792;50.886;6.468;2023-10-19T04:42:55;26.15;;;16.75;;
27305;SDS011;14792;50.886;6.468;2023-10-19T04:45:56;32.20;;;17.45;;
27305;SDS011;14792;50.886;6.468;2023-10-19T04:48:58;23.87;;;15.38;;
27305;SDS011;14792;50.886;6.468;2023-10-19T04:51:59;20.23;;;14.40;;
27305;SDS011;14792;50.886;6.468;2023-10-19T04:55:01;23.35;;;13.78;;
27305;SDS011;14792;50.886;6.468;2023-10-19T04:58:03;18.50;;;12.93;;
27305;SDS011;14792;50.886;6.468;2023-10-19T05:01:04;20.48;;;13.22;;
27305;SDS011;14792;50.886;6.468;2023-10-19T05:04:06;21.25;;;13.30;;
27305;SDS011;14792;50.886;6.468;2023-10-19T05:07:07;19.87;;;11.75;;
27305;SDS011;14792;50.886;6.468;2023-10-19T05:10:09;20.95;;;11.28;;
27305;SDS011;14792;50.886;6.468;2023-10-19T05:13:11;15.80;;;10.25;;
27305;SDS011;14792;50.886;6.468;2023-10-19T05:16:12;13.10;;;9.58;;
27305;SDS011;14792;50.886;6.468;2023-10-19T05:19:14;11.03;;;8.98;;
27305;SDS011;14792;50.886;6.468;2023-10-19T05:22:16;12.53;;;8.83;;
27305;SDS011;14792;50.886;6.468;2023-10-19T05:28:19;13.75;;;8.95;;
27305;SDS011;14792;50.886;6.468;2023-10-19T05:31:20;20.62;;;10.38;;
27305;SDS011;14792;50.886;6.468;2023-10-19T05:34:22;16.97;;;9.40;;
27305;SDS011;14792;50.886;6.468;2023-10-19T05:37:23;19.05;;;11.05;;
27305;SDS011;14792;50.886;6.468;2023-10-19T05:40:25;17.45;;;11.63;;
27305;SDS011;14792;50.886;6.468;2023-10-19T05:43:32;20.82;;;12.43;;
27305;SDS011;14792;50.886;6.468;2023-10-19T05:46:34;19.90;;;12.18;;
27305;SDS011;14792;50.886;6.468;2023-10-19T05:49:36;22.73;;;11.10;;
27305;SDS011;14792;50.886;6.468;2023-10-19T05:52:37;21.15;;;11.68;;
27305;SDS011;14792;50.886;6.468;2023-10-19T05:55:39;24.32;;;12.05;;
27305;SDS011;14792;50.886;6.468;2023-10-19T05:58:40;22.85;;;11.35;;
27305;SDS011;14792;50.886;6.468;2023-10-19T06:01:42;20.02;;;11.45;;
27305;SDS011;14792;50.886;6.468;2023-10-19T06:04:43;21.23;;;12.03;;
27305;SDS011;14792;50.886;6.468;2023-10-19T06:07:45;25.43;;;12.23;;
27305;SDS011;14792;50.886;6.468;2023-10-19T06:10:50;19.62;;;11.83;;
27305;SDS011;14792;50.886;6.468;2023-10-19T06:13:48;20.52;;;12.20;;
27305;SDS011;14792;50.886;6.468;2023-10-19T06:16:50;20.00;;;12.00;;
27305;SDS011;14792;50.886;6.468;2023-10-19T06:19:51;23.60;;;12.13;;
27305;SDS011;14792;50.886;6.468;2023-10-19T06:22:54;17.23;;;10.65;;
27305;SDS011;14792;50.886;6.468;2023-10-19T06:25:55;17.25;;;11.40;;
27305;SDS011;14792;50.886;6.468;2023-10-19T06:28:56;15.45;;;10.53;;
27305;SDS011;14792;50.886;6.468;2023-10-19T06:32:00;23.10;;;10.53;;
27305;SDS011;14792;50.886;6.468;2023-10-19T06:35:03;20.27;;;11.00;;
27305;SDS011;14792;50.886;6.468;2023-10-19T06:38:04;14.83;;;10.38;;
27305;SDS011;14792;50.886;6.468;2023-10-19T06:41:12;17.07;;;9.83;;
27305;SDS011;14792;50.886;6.468;2023-10-19T06:44:13;18.95;;;9.95;;
27305;SDS011;14792;50.886;6.468;2023-10-19T06:47:15;17.67;;;10.43;;
27305;SDS011;14792;50.886;6.468;2023-10-19T06:50:17;14.25;;;10.48;;
27305;SDS011;14792;50.886;6.468;2023-10-19T06:53:18;21.42;;;10.13;;
27305;SDS011;14792;50.886;6.468;2023-10-19T06:56:19;17.75;;;10.53;;
27305;SDS011;14792;50.886;6.468;2023-10-19T06:59:21;16.27;;;10.35;;
27305;SDS011;14792;50.886;6.468;2023-10-19T07:02:22;18.42;;;11.25;;
27305;SDS011;14792;50.886;6.468;2023-10-19T07:05:24;19.85;;;10.08;;
27305;SDS011;14792;50.886;6.468;2023-10-19T07:08:26;20.48;;;11.25;;
27305;SDS011;14792;50.886;6.468;2023-10-19T07:11:30;16.65;;;10.35;;
27305;SDS011;14792;50.886;6.468;2023-10-19T07:14:34;16.52;;;9.80;;
27305;SDS011;14792;50.886;6.468;2023-10-19T07:17:36;15.75;;;9.80;;
27305;SDS011;14792;50.886;6.468;2023-10-19T07:20:40;16.52;;;10.65;;
27305;SDS011;14792;50.886;6.468;2023-10-19T07:23:42;16.30;;;9.95;;
27305;SDS011;14792;50.886;6.468;2023-10-19T07:26:43;18.70;;;9.50;;
27305;SDS011;14792;50.886;6.468;2023-10-19T07:29:45;14.65;;;9.73;;
27305;SDS011;14792;50.886;6.468;2023-10-19T07:32:50;16.12;;;9.25;;
27305;SDS011;14792;50.886;6.468;2023-10-19T07:36:00;16.48;;;8.83;;
27305;SDS011;14792;50.886;6.468;2023-10-19T07:39:01;19.77;;;9.18;;
27305;SDS011;14792;50.886;6.468;2023-10-19T07:42:03;12.88;;;8.33;;
27305;SDS011;14792;50.886;6.468;2023-10-19T07:45:05;11.85;;;7.58;;
27305;SDS011;14792;50.886;6.468;2023-10-19T07:48:06;15.65;;;7.83;;
27305;SDS011;14792;50.886;6.468;2023-10-19T07:51:08;13.65;;;6.97;;
27305;SDS011;14792;50.886;6.468;2023-10-19T07:54:09;14.33;;;6.80;;
27305;SDS011;14792;50.886;6.468;2023-10-19T07:57:11;12.65;;;6.17;;
27305;SDS011;14792;50.886;6.468;2023-10-19T08:00:13;15.60;;;6.80;;
27305;SDS011;14792;50.886;6.468;2023-10-19T08:03:14;17.48;;;6.20;;
27305;SDS011;14792;50.886;6.468;2023-10-19T08:06:16;12.47;;;6.78;;
27305;SDS011;14792;50.886;6.468;2023-10-19T08:09:17;15.35;;;6.08;;
27305;SDS011;14792;50.886;6.468;2023-10-19T08:12:19;13.03;;;6.08;;
27305;SDS011;14792;50.886;6.468;2023-10-19T08:15:21;13.62;;;5.75;;
27305;SDS011;14792;50.886;6.468;2023-10-19T08:18:22;10.28;;;5.08;;
27305;SDS011;14792;50.886;6.468;2023-10-19T08:21:24;15.05;;;5.28;;
27305;SDS011;14792;50.886;6.468;2023-10-19T08:24:25;14.93;;;5.37;;
27305;SDS011;14792;50.886;6.468;2023-10-19T08:27:27;13.55;;;4.22;;
27305;SDS011;14792;50.886;6.468;2023-10-19T08:30:28;8.48;;;3.27;;
27305;SDS011;14792;50.886;6.468;2023-10-19T08:33:30;13.78;;;3.52;;
27305;SDS011;14792;50.886;6.468;2023-10-19T08:36:32;10.40;;;2.92;;
27305;SDS011;14792;50.886;6.468;2023-10-19T08:39:33;15.53;;;3.55;;
27305;SDS011;14792;50.886;6.468;2023-10-19T08:42:35;6.35;;;2.60;;
27305;SDS011;14792;50.886;6.468;2023-10-19T08:45:36;16.67;;;2.65;;
27305;SDS011;14792;50.886;6.468;2023-10-19T08:48:38;6.53;;;2.67;;
27305;SDS011;14792;50.886;6.468;2023-10-19T08:51:43;8.40;;;3.00;;
27305;SDS011;14792;50.886;6.468;2023-10-19T08:54:41;12.58;;;4.58;;
27305;SDS011;14792;50.886;6.468;2023-10-19T08:57:43;13.62;;;4.03;;
27305;SDS011;14792;50.886;6.468;2023-10-19T09:03:48;15.15;;;3.80;;
27305;SDS011;14792;50.886;6.468;2023-10-19T09:06:50;11.18;;;3.60;;
27305;SDS011;14792;50.886;6.468;2023-10-19T09:09:52;15.05;;;3.92;;
27305;SDS011;14792;50.886;6.468;2023-10-19T09:13:00;10.53;;;3.67;;
27305;SDS011;14792;50.886;6.468;2023-10-19T09:16:04;14.78;;;3.95;;
27305;SDS011;14792;50.886;6.468;2023-10-19T09:19:02;18.55;;;3.67;;
27305;SDS011;14792;50.886;6.468;2023-10-19T09:22:04;18.25;;;4.25;;
27305;SDS011;14792;50.886;6.468;2023-10-19T09:25:08;12.15;;;4.47;;
27305;SDS011;14792;50.886;6.468;2023-10-19T09:28:10;10.15;;;3.08;;
27305;SDS011;14792;50.886;6.468;2023-10-19T09:31:11;12.00;;;3.12;;
27305;SDS011;14792;50.886;6.468;2023-10-19T09:34:13;9.13;;;2.80;;
27305;SDS011;14792;50.886;6.468;2023-10-19T09:37:15;16.17;;;3.45;;
27305;SDS011;14792;50.886;6.468;2023-10-19T09:40:16;16.15;;;3.33;;
27305;SDS011;14792;50.886;6.468;2023-10-19T09:43:21;10.93;;;3.08;;
27305;SDS011;14792;50.886;6.468;2023-10-19T09:46:31;13.48;;;3.83;;
27305;SDS011;14792;50.886;6.468;2023-10-19T09:49:32;18.15;;;3.33;;
27305;SDS011;14792;50.886;6.468;2023-10-19T09:52:34;18.80;;;4.12;;
27305;SDS011;14792;50.886;6.468;2023-10-19T09:55:37;21.40;;;4.25;;
27305;SDS011;14792;50.886;6.468;2023-10-19T09:58:42;17.92;;;4.17;;
27305;SDS011;14792;50.886;6.468;2023-10-19T10:02:06;15.72;;;3.72;;
27305;SDS011;14792;50.886;6.468;2023-10-19T10:08:45;20.30;;;4.50;;
27305;SDS011;14792;50.886;6.468;2023-10-19T10:11:50;20.60;;;3.15;;
27305;SDS011;14792;50.886;6.468;2023-10-19T10:14:57;20.25;;;3.33;;
27305;SDS011;14792;50.886;6.468;2023-10-19T10:18:11;12.07;;;2.85;;
27305;SDS011;14792;50.886;6.468;2023-10-19T10:21:16;19.50;;;3.20;;
27305;SDS011;14792;50.886;6.468;2023-10-19T10:24:16;25.62;;;3.20;;
27305;SDS011;14792;50.886;6.468;2023-10-19T10:27:18;17.62;;;3.27;;
27305;SDS011;14792;50.886;6.468;2023-10-19T10:30:20;23.62;;;3.42;;
27305;SDS011;14792;50.886;6.468;2023-10-19T10:37:02;21.85;;;3.77;;
27305;SDS011;14792;50.886;6.468;2023-10-19T10:40:09;21.93;;;3.30;;
27305;SDS011;14792;50.886;6.468;2023-10-19T10:43:11;23.18;;;3.90;;
27305;SDS011;14792;50.886;6.468;2023-10-19T10:46:12;17.70;;;3.00;;
27305;SDS011;14792;50.886;6.468;2023-10-19T10:49:14;20.68;;;4.00;;
27305;SDS011;14792;50.886;6.468;2023-10-19T10:55:28;17.40;;;2.90;;
27305;SDS011;14792;50.886;6.468;2023-10-19T10:58:30;19.90;;;3.42;;
27305;SDS011;14792;50.886;6.468;2023-10-19T11:01:32;17.37;;;3.20;;
27305;SDS011;14792;50.886;6.468;2023-10-19T11:04:42;23.18;;;3.87;;
27305;SDS011;14792;50.886;6.468;2023-10-19T11:07:38;25.97;;;3.00;;
27305;SDS011;14792;50.886;6.468;2023-10-19T11:10:43;12.50;;;2.50;;
27305;SDS011;14792;50.886;6.468;2023-10-19T11:13:44;14.75;;;3.40;;
27305;SDS011;14792;50.886;6.468;2023-10-19T11:16:45;12.03;;;2.20;;
27305;SDS011;14792;50.886;6.468;2023-10-19T11:19:47;10.78;;;2.90;;
27305;SDS011;14792;50.886;6.468;2023-10-19T11:22:49;13.55;;;2.90;;
27305;SDS011;14792;50.886;6.468;2023-10-19T11:25:57;19.23;;;2.70;;
27305;SDS011;14792;50.886;6.468;2023-10-19T11:29:01;16.97;;;2.70;;
27305;SDS011;14792;50.886;6.468;2023-10-19T11:32:01;14.75;;;2.83;;
27305;SDS011;14792;50.886;6.468;2023-10-19T11:35:03;11.55;;;2.75;;
27305;SDS011;14792;50.886;6.468;2023-10-19T11:38:05;7.33;;;2.20;;
27305;SDS011;14792;50.886;6.468;2023-10-19T11:41:06;14.33;;;4.72;;
27305;SDS011;14792;50.886;6.468;2023-10-19T11:44:08;15.32;;;6.65;;
27305;SDS011;14792;50.886;6.468;2023-10-19T11:47:09;16.80;;;6.00;;
27305;SDS011;14792;50.886;6.468;2023-10-19T11:50:11;25.92;;;14.75;;
27305;SDS011;14792;50.886;6.468;2023-10-19T11:53:15;18.73;;;9.25;;
27305;SDS011;14792;50.886;6.468;2023-10-19T11:56:17;18.45;;;6.60;;
27305;SDS011;14792;50.886;6.468;2023-10-19T11:59:19;13.08;;;5.78;;
27305;SDS011;14792;50.886;6.468;2023-10-19T12:02:20;19.37;;;8.20;;
27305;SDS011;14792;50.886;6.468;2023-10-19T12:05:22;41.00;;;23.05;;
27305;SDS011;14792;50.886;6.468;2023-10-19T12:08:23;40.10;;;24.25;;
27305;SDS011;14792;50.886;6.468;2023-10-19T12:11:25;28.25;;;14.03;;
27305;SDS011;14792;50.886;6.468;2023-10-19T12:14:27;19.92;;;8.65;;
27305;SDS011;14792;50.886;6.468;2023-10-19T12:17:28;10.13;;;4.60;;
27305;SDS011;14792;50.886;6.468;2023-10-19T12:20:30;14.38;;;2.60;;
27305;SDS011;14792;50.886;6.468;2023-10-19T12:23:31;7.67;;;2.67;;
27305;SDS011;14792;50.886;6.468;2023-10-19T12:26:33;11.80;;;2.95;;
27305;SDS011;14792;50.886;6.468;2023-10-19T12:29:35;12.98;;;4.12;;
27305;SDS011;14792;50.886;6.468;2023-10-19T12:32:36;14.68;;;7.67;;
27305;SDS011;14792;50.886;6.468;2023-10-19T12:35:38;9.48;;;2.47;;
27305;SDS011;14792;50.886;6.468;2023-10-19T12:38:47;12.28;;;2.50;;
27305;SDS011;14792;50.886;6.468;2023-10-19T12:41:48;16.85;;;7.90;;
27305;SDS011;14792;50.886;6.468;2023-10-19T12:44:50;9.95;;;3.50;;
27305;SDS011;14792;50.886;6.468;2023-10-19T12:47:51;13.25;;;5.67;;
27305;SDS011;14792;50.886;6.468;2023-10-19T12:50:53;17.73;;;7.65;;
27305;SDS011;14792;50.886;6.468;2023-10-19T12:53:54;10.13;;;3.83;;
27305;SDS011;14792;50.886;6.468;2023-10-19T12:56:56;14.25;;;6.78;;
27305;SDS011;14792;50.886;6.468;2023-10-19T12:59:58;18.15;;;10.38;;
27305;SDS011;14792;50.886;6.468;2023-10-19T13:02:59;15.80;;;7.30;;
27305;SDS011;14792;50.886;6.468;2023-10-19T13:06:01;18.50;;;6.90;;
27305;SDS011;14792;50.886;6.468;2023-10-19T13:09:02;18.45;;;5.85;;
27305;SDS011;14792;50.886;6.468;2023-10-19T13:12:04;17.25;;;6.60;;
27305;SDS011;14792;50.886;6.468;2023-10-19T13:15:06;15.58;;;6.72;;
27305;SDS011;14792;50.886;6.468;2023-10-19T13:18:08;16.77;;;6.30;;
27305;SDS011;14792;50.886;6.468;2023-10-19T13:21:09;29.67;;;16.50;;
27305;SDS011;14792;50.886;6.468;2023-10-19T13:24:10;17.70;;;6.20;;
27305;SDS011;14792;50.886;6.468;2023-10-19T13:27:12;13.98;;;4.58;;
27305;SDS011;14792;50.886;6.468;2023-10-19T13:30:14;14.80;;;4.10;;
27305;SDS011;14792;50.886;6.468;2023-10-19T13:33:16;14.13;;;4.05;;
27305;SDS011;14792;50.886;6.468;2023-10-19T13:36:17;11.43;;;2.37;;
27305;SDS011;14792;50.886;6.468;2023-10-19T13:39:18;9.75;;;2.30;;
27305;SDS011;14792;50.886;6.468;2023-10-19T13:42:20;8.93;;;3.30;;
27305;SDS011;14792;50.886;6.468;2023-10-19T13:45:22;16.40;;;4.78;;
27305;SDS011;14792;50.886;6.468;2023-10-19T13:48:23;15.85;;;4.17;;
27305;SDS011;14792;50.886;6.468;2023-10-19T13:51:25;10.63;;;3.17;;
27305;SDS011;14792;50.886;6.468;2023-10-19T13:54:26;13.95;;;3.62;;
27305;SDS011;14792;50.886;6.468;2023-10-19T13:57:28;11.88;;;3.50;;
27305;SDS011;14792;50.886;6.468;2023-10-19T14:00:30;11.20;;;3.20;;
27305;SDS011;14792;50.886;6.468;2023-10-19T14:03:31;17.25;;;3.92;;
27305;SDS011;14792;50.886;6.468;2023-10-19T14:06:33;13.55;;;4.50;;
27305;SDS011;14792;50.886;6.468;2023-10-19T14:09:34;18.07;;;3.92;;
27305;SDS011;14792;50.886;6.468;2023-10-19T14:12:36;15.70;;;2.92;;
27305;SDS011;14792;50.886;6.468;2023-10-19T14:15:38;9.23;;;3.35;;
27305;SDS011;14792;50.886;6.468;2023-10-19T14:18:39;10.20;;;2.30;;
27305;SDS011;14792;50.886;6.468;2023-10-19T14:21:41;11.97;;;3.15;;
27305;SDS011;14792;50.886;6.468;2023-10-19T14:24:42;13.25;;;3.20;;
27305;SDS011;14792;50.886;6.468;2023-10-19T14:27:45;9.98;;;3.47;;
27305;SDS011;14792;50.886;6.468;2023-10-19T14:30:45;12.78;;;4.17;;
27305;SDS011;14792;50.886;6.468;2023-10-19T14:33:47;11.93;;;3.60;;
27305;SDS011;14792;50.886;6.468;2023-10-19T14:36:49;12.60;;;3.37;;
27305;SDS011;14792;50.886;6.468;2023-10-19T14:39:50;16.37;;;3.62;;
27305;SDS011;14792;50.886;6.468;2023-10-19T14:42:53;17.67;;;3.22;;
27305;SDS011;14792;50.886;6.468;2023-10-19T14:45:53;10.50;;;3.25;;
27305;SDS011;14792;50.886;6.468;2023-10-19T14:48:55;9.30;;;3.40;;
27305;SDS011;14792;50.886;6.468;2023-10-19T14:51:57;12.43;;;3.40;;
27305;SDS011;14792;50.886;6.468;2023-10-19T14:54:58;14.63;;;3.75;;
27305;SDS011;14792;50.886;6.468;2023-10-19T14:58:00;17.25;;;3.72;;
27305;SDS011;14792;50.886;6.468;2023-10-19T15:01:01;12.73;;;3.90;;
27305;SDS011;14792;50.886;6.468;2023-10-19T15:04:03;15.75;;;3.87;;
27305;SDS011;14792;50.886;6.468;2023-10-19T15:07:04;11.40;;;3.72;;
27305;SDS011;14792;50.886;6.468;2023-10-19T15:10:06;10.90;;;3.70;;
27305;SDS011;14792;50.886;6.468;2023-10-19T15:13:08;15.53;;;4.12;;
27305;SDS011;14792;50.886;6.468;2023-10-19T15:16:09;12.23;;;3.80;;
27305;SDS011;14792;50.886;6.468;2023-10-19T15:19:11;12.15;;;4.00;;
27305;SDS011;14792;50.886;6.468;2023-10-19T15:22:13;14.23;;;3.30;;
27305;SDS011;14792;50.886;6.468;2023-10-19T15:25:14;12.33;;;3.40;;
27305;SDS011;14792;50.886;6.468;2023-10-19T15:28:16;13.45;;;3.65;;
27305;SDS011;14792;50.886;6.468;2023-10-19T15:31:17;10.32;;;3.00;;
27305;SDS011;14792;50.886;6.468;2023-10-19T15:34:19;11.50;;;3.60;;
27305;SDS011;14792;50.886;6.468;2023-10-19T15:37:21;9.35;;;3.30;;
27305;SDS011;14792;50.886;6.468;2023-10-19T15:40:23;12.47;;;3.30;;
27305;SDS011;14792;50.886;6.468;2023-10-19T15:43:24;10.28;;;4.00;;
27305;SDS011;14792;50.886;6.468;2023-10-19T15:46:26;13.78;;;4.42;;
27305;SDS011;14792;50.886;6.468;2023-10-19T15:49:27;11.93;;;3.72;;
27305;SDS011;14792;50.886;6.468;2023-10-19T15:52:29;10.90;;;3.42;;
27305;SDS011;14792;50.886;6.468;2023-10-19T15:55:30;9.63;;;3.60;;
27305;SDS011;14792;50.886;6.468;2023-10-19T15:58:32;11.33;;;4.40;;
27305;SDS011;14792;50.886;6.468;2023-10-19T16:01:34;12.88;;;4.90;;
27305;SDS011;14792;50.886;6.468;2023-10-19T16:04:36;17.57;;;7.15;;
27305;SDS011;14792;50.886;6.468;2023-10-19T16:07:43;16.20;;;5.10;;
27305;SDS011;14792;50.886;6.468;2023-10-19T16:10:44;14.68;;;4.62;;
27305;SDS011;14792;50.886;6.468;2023-10-19T16:13:46;12.23;;;4.85;;
27305;SDS011;14792;50.886;6.468;2023-10-19T16:16:47;10.50;;;4.03;;
27305;SDS011;14792;50.886;6.468;2023-10-19T16:19:49;12.25;;;4.35;;
27305;SDS011;14792;50.886;6.468;2023-10-19T16:22:51;14.33;;;4.58;;
27305;SDS011;14792;50.886;6.468;2023-10-19T16:25:58;12.47;;;5.03;;
27305;SDS011;14792;50.886;6.468;2023-10-19T16:29:02;16.57;;;5.87;;
27305;SDS011;14792;50.886;6.468;2023-10-19T16:32:06;12.40;;;5.70;;
27305;SDS011;14792;50.886;6.468;2023-10-19T16:35:08;14.40;;;5.40;;
27305;SDS011;14792;50.886;6.468;2023-10-19T16:38:12;23.10;;;6.95;;
27305;SDS011;14792;50.886;6.468;2023-10-19T16:41:14;12.58;;;6.22;;
27305;SDS011;14792;50.886;6.468;2023-10-19T16:44:16;11.83;;;6.22;;
27305;SDS011;14792;50.886;6.468;2023-10-19T16:47:17;15.35;;;6.05;;
27305;SDS011;14792;50.886;6.468;2023-10-19T16:50:19;14.70;;;6.62;;
27305;SDS011;14792;50.886;6.468;2023-10-19T16:53:20;17.90;;;7.05;;
27305;SDS011;14792;50.886;6.468;2023-10-19T16:56:22;14.93;;;7.58;;
27305;SDS011;14792;50.886;6.468;2023-10-19T16:59:23;19.55;;;7.90;;
27305;SDS011;14792;50.886;6.468;2023-10-19T17:02:25;18.42;;;8.33;;
27305;SDS011;14792;50.886;6.468;2023-10-19T17:05:26;16.15;;;8.38;;
27305;SDS011;14792;50.886;6.468;2023-10-19T17:08:28;17.10;;;8.63;;
27305;SDS011;14792;50.886;6.468;2023-10-19T17:11:30;14.43;;;7.62;;
27305;SDS011;14792;50.886;6.468;2023-10-19T17:14:31;20.65;;;8.58;;
27305;SDS011;14792;50.886;6.468;2023-10-19T17:17:33;17.82;;;9.03;;
27305;SDS011;14792;50.886;6.468;2023-10-19T17:20:34;17.10;;;9.18;;
27305;SDS011;14792;50.886;6.468;2023-10-19T17:23:36;29.82;;;16.25;;
27305;SDS011;14792;50.886;6.468;2023-10-19T17:26:38;20.55;;;10.70;;
27305;SDS011;14792;50.886;6.468;2023-10-19T17:29:39;17.60;;;10.48;;
27305;SDS011;14792;50.886;6.468;2023-10-19T17:32:41;16.82;;;10.08;;
27305;SDS011;14792;50.886;6.468;2023-10-19T17:35:42;22.00;;;10.78;;
27305;SDS011;14792;50.886;6.468;2023-10-19T17:38:44;20.10;;;10.85;;
27305;SDS011;14792;50.886;6.468;2023-10-19T17:41:46;19.23;;;9.73;;
27305;SDS011;14792;50.886;6.468;2023-10-19T17:44:47;19.40;;;10.60;;
27305;SDS011;14792;50.886;6.468;2023-10-19T17:47:49;18.57;;;10.30;;
27305;SDS011;14792;50.886;6.468;2023-10-19T17:50:50;16.57;;;10.32;;
27305;SDS011;14792;50.886;6.468;2023-10-19T17:53:52;15.68;;;10.63;;
27305;SDS011;14792;50.886;6.468;2023-10-19T17:56:54;20.90;;;12.80;;
27305;SDS011;14792;50.886;6.468;2023-10-19T17:59:55;22.10;;;14.75;;
27305;SDS011;14792;50.886;6.468;2023-10-19T18:02:57;21.20;;;14.98;;
27305;SDS011;14792;50.886;6.468;2023-10-19T18:05:59;22.60;;;12.37;;
27305;SDS011;14792;50.886;6.468;2023-10-19T18:09:00;24.10;;;14.15;;